createdAt,value
2023-02-26T00:10:41.338Z,2.90
2023-02-26T00:12:44.731Z,2.28
2023-02-26T00:14:56.628Z,2.60
2023-02-26T00:18:03.845Z,2.58
2023-02-26T00:21:23.770Z,2.60
2023-02-26T00:23:30.691Z,2.50
2023-02-26T00:28:45.406Z,2.70
2023-02-26T00:30:01.668Z,3.05
2023-02-26T00:31:32.153Z,2.85
2023-02-26T00:32:47.515Z,3.20
2023-02-26T00:34:22.285Z,2.70
2023-02-26T00:46:55.958Z,2.72
2023-02-26T00:54:17.466Z,3.40
2023-02-26T00:56:07.467Z,3.15
2023-02-26T00:58:32.277Z,3.60
2023-02-26T01:06:15.187Z,3.33
2023-02-26T01:08:41.684Z,3.30
2023-02-26T01:11:02.563Z,2.95
2023-02-26T01:12:37.751Z,3.20
2023-02-26T01:18:18.509Z,2.90
2023-02-26T01:20:54.778Z,3.05
2023-02-26T01:23:15.558Z,3.00
2023-02-26T01:25:08.186Z,2.80
2023-02-26T01:27:22.803Z,2.50
2023-02-26T01:29:25.556Z,2.50
2023-02-26T01:34:02.080Z,2.80
2023-02-26T01:38:36.080Z,2.60
2023-02-26T01:41:36.641Z,2.50
2023-02-26T01:43:54.169Z,2.30
2023-02-26T01:57:26.045Z,2.50
2023-02-26T01:59:46.370Z,2.47
2023-02-26T02:02:16.102Z,2.65
2023-02-26T02:04:05.419Z,3.17
2023-02-26T02:05:50.504Z,2.88
2023-02-26T02:07:39.613Z,2.38
2023-02-26T02:15:23.966Z,2.63
2023-02-26T02:17:48.786Z,2.78
2023-02-26T02:19:21.825Z,2.78
2023-02-26T02:21:24.594Z,2.42
2023-02-26T02:26:55.873Z,2.75
2023-02-26T02:35:02.884Z,2.55
2023-02-26T02:39:29.691Z,2.10
2023-02-26T02:47:30.426Z,2.13
2023-02-26T02:51:44.793Z,2.00
2023-02-26T02:53:56.658Z,1.67
2023-02-26T02:56:03.486Z,2.10
2023-02-26T02:58:33.658Z,1.77
2023-02-26T03:13:37.268Z,2.08
2023-02-26T03:19:58.726Z,1.80
2023-02-26T03:25:33.004Z,1.80
2023-02-26T03:27:19.319Z,1.80
2023-02-26T03:39:21.345Z,2.22
2023-02-26T03:41:15.716Z,1.70
2023-02-26T03:43:16.778Z,2.30
2023-02-26T03:47:16.133Z,2.35
2023-02-26T03:51:08.826Z,1.95
2023-02-26T03:53:11.550Z,2.20
2023-02-26T04:03:50.859Z,1.70
2023-02-26T04:05:51.060Z,2.30
2023-02-26T04:11:22.606Z,2.42
2023-02-26T04:13:58.271Z,2.10
2023-02-26T04:20:09.070Z,2.20
2023-02-26T04:25:44.071Z,2.40
2023-02-26T04:33:16.545Z,2.30
2023-02-26T04:35:04.661Z,2.17
2023-02-26T04:41:37.554Z,1.77
2023-02-26T05:07:40.910Z,2.25
2023-02-26T05:09:43.707Z,2.20
2023-02-26T05:44:05.171Z,2.20
2023-02-26T05:48:58.767Z,2.20
2023-02-26T05:51:41.610Z,2.58
2023-02-26T05:54:21.362Z,1.98
2023-02-26T05:56:05.210Z,2.47
2023-02-26T05:58:39.754Z,2.45
2023-02-26T06:01:12.455Z,2.55
2023-02-26T06:09:35.382Z,1.95
2023-02-26T06:26:53.208Z,2.33
2023-02-26T06:28:56.352Z,2.10
2023-02-26T06:31:13.474Z,2.95
2023-02-26T06:32:30.837Z,2.10
2023-02-26T06:35:07.376Z,1.90
2023-02-26T06:43:44.456Z,1.90
2023-02-26T06:55:54.568Z,1.95
2023-02-26T07:04:34.692Z,1.70
2023-02-26T07:17:46.168Z,2.35
2023-02-26T07:19:13.364Z,2.30
2023-02-26T07:20:53.955Z,2.30
2023-02-26T07:22:03.571Z,2.63
2023-02-26T07:23:17.033Z,3.10
2023-02-26T07:24:24.817Z,2.78
2023-02-26T07:25:46.606Z,3.00
2023-02-26T07:27:10.886Z,2.42
2023-02-26T07:28:41.961Z,2.30
2023-02-26T07:34:01.125Z,2.20
2023-02-26T07:35:32.829Z,1.80
2023-02-26T07:37:13.906Z,2.25
2023-02-26T07:44:49.115Z,1.90
2023-02-26T07:46:23.347Z,2.05
2023-02-26T07:47:55.372Z,2.20
2023-02-26T07:49:48.389Z,1.70
2023-02-26T07:53:21.200Z,2.33
2023-02-26T07:54:35.669Z,2.00
2023-02-26T08:03:16.564Z,2.67
2023-02-26T08:04:34.134Z,2.20
2023-02-26T08:08:48.536Z,2.30
2023-02-26T08:17:18.679Z,3.13
2023-02-26T08:18:54.322Z,2.10
2023-02-26T08:19:57.444Z,2.75
2023-02-26T08:20:59.545Z,2.92
2023-02-26T08:22:02.623Z,3.15
2023-02-26T08:23:05.715Z,3.13
2023-02-26T08:24:07.842Z,4.93
2023-02-26T08:25:11.177Z,4.18
2023-02-26T08:26:14.037Z,3.05
2023-02-26T08:27:17.802Z,2.92
2023-02-26T08:28:19.907Z,2.90
2023-02-26T08:29:25.236Z,3.40
2023-02-26T08:30:28.327Z,4.00
2023-02-26T08:31:34.644Z,3.08
2023-02-26T08:32:37.509Z,2.97
2023-02-26T08:33:40.749Z,3.30
2023-02-26T08:34:42.986Z,2.58
2023-02-26T08:35:46.172Z,2.83
2023-02-26T08:36:50.365Z,3.45
2023-02-26T08:37:52.861Z,3.05
2023-02-26T08:38:56.032Z,3.15
2023-02-26T08:39:59.148Z,3.25
2023-02-26T08:41:01.341Z,3.28
2023-02-26T08:42:04.536Z,3.50
2023-02-26T08:43:06.813Z,3.72
2023-02-26T08:44:10.177Z,3.10
2023-02-26T08:45:13.864Z,3.00
2023-02-26T08:46:17.211Z,2.95
2023-02-26T08:47:28.386Z,2.92
2023-02-26T08:48:31.995Z,3.25
2023-02-26T08:49:34.111Z,2.80
2023-02-26T08:50:37.328Z,2.90
2023-02-26T08:51:40.626Z,2.95
2023-02-26T08:52:43.670Z,3.58
2023-02-26T08:53:47.324Z,3.60
2023-02-26T08:54:50.585Z,2.95
2023-02-26T08:55:53.803Z,3.35
2023-02-26T08:56:57.820Z,3.70
2023-02-26T08:57:59.895Z,3.38
2023-02-26T08:59:02.953Z,3.55
2023-02-26T09:00:10.372Z,3.03
2023-02-26T09:01:15.144Z,3.50
2023-02-26T09:02:17.216Z,3.00
2023-02-26T09:03:20.243Z,3.13
2023-02-26T09:04:22.439Z,3.83
2023-02-26T09:05:25.524Z,2.88
2023-02-26T09:06:28.995Z,3.70
2023-02-26T09:07:31.201Z,3.60
2023-02-26T09:08:35.078Z,3.42
2023-02-26T09:09:37.197Z,3.42
2023-02-26T09:10:41.255Z,3.47
2023-02-26T09:11:43.307Z,2.83
2023-02-26T09:12:46.788Z,3.20
2023-02-26T09:13:48.868Z,3.90
2023-02-26T09:14:51.960Z,4.47
2023-02-26T09:15:54.528Z,4.47
2023-02-26T09:16:59.157Z,3.40
2023-02-26T09:18:01.372Z,3.50
2023-02-26T09:19:05.500Z,3.45
2023-02-26T09:20:09.522Z,3.70
2023-02-26T09:21:12.623Z,3.72
2023-02-26T09:22:14.667Z,3.47
2023-02-26T09:23:17.973Z,3.70
2023-02-26T09:24:20.163Z,3.63
2023-02-26T09:25:23.965Z,3.90
2023-02-26T09:26:26.679Z,3.80
2023-02-26T09:27:29.963Z,4.63
2023-02-26T09:28:32.360Z,4.00
2023-02-26T09:29:35.611Z,3.55
2023-02-26T09:30:38.920Z,4.07
2023-02-26T09:31:41.199Z,4.18
2023-02-26T09:32:45.925Z,4.18
2023-02-26T09:33:49.128Z,3.90
2023-02-26T09:34:52.461Z,3.50
2023-02-26T09:35:55.585Z,3.60
2023-02-26T09:36:57.708Z,3.20
2023-02-26T09:38:00.872Z,3.75
2023-02-26T09:39:03.073Z,3.30
2023-02-26T09:40:07.575Z,3.85
2023-02-26T09:41:17.536Z,3.80
2023-02-26T09:42:31.877Z,3.78
2023-02-26T09:44:02.875Z,3.38
2023-02-26T09:45:10.410Z,3.92
2023-02-26T09:46:26.275Z,3.85
2023-02-26T09:47:39.444Z,3.08
2023-02-26T09:48:45.710Z,3.90
2023-02-26T09:49:54.210Z,3.15
2023-02-26T09:50:59.382Z,3.40
2023-02-26T09:52:09.938Z,3.55
2023-02-26T09:53:18.755Z,3.90
2023-02-26T09:54:28.018Z,3.80
2023-02-26T09:55:38.876Z,3.70
2023-02-26T09:56:41.350Z,3.75
2023-02-26T09:57:46.546Z,3.70
2023-02-26T09:58:48.873Z,3.92
2023-02-26T09:59:52.237Z,4.57
2023-02-26T10:01:01.787Z,4.30
2023-02-26T10:02:13.946Z,4.25
2023-02-26T10:03:25.163Z,3.90
2023-02-26T10:04:45.309Z,4.32
2023-02-26T10:06:05.502Z,4.00
2023-02-26T10:07:18.048Z,3.85
2023-02-26T10:08:23.785Z,3.75
2023-02-26T10:09:37.894Z,3.85
2023-02-26T10:10:50.732Z,4.40
2023-02-26T10:12:00.993Z,4.18
2023-02-26T10:13:04.622Z,3.40
2023-02-26T10:14:13.043Z,3.97
2023-02-26T10:15:20.385Z,3.65
2023-02-26T10:16:27.394Z,4.35
2023-02-26T10:17:35.688Z,4.13
2023-02-26T10:18:44.447Z,3.90
2023-02-26T10:19:54.079Z,3.80
2023-02-26T10:21:01.744Z,3.85
2023-02-26T10:22:13.348Z,3.63
2023-02-26T10:23:22.850Z,3.65
2023-02-26T10:24:30.825Z,4.22
2023-02-26T10:25:39.185Z,4.03
2023-02-26T10:26:45.472Z,3.75
2023-02-26T10:27:55.988Z,3.60
2023-02-26T10:29:04.000Z,3.83
2023-02-26T10:30:11.811Z,3.88
2023-02-26T10:31:24.277Z,4.30
2023-02-26T10:32:34.681Z,3.47
2023-02-26T10:33:43.791Z,4.15
2023-02-26T10:34:53.889Z,3.55
2023-02-26T10:36:05.684Z,4.00
2023-02-26T10:37:16.890Z,3.63
2023-02-26T10:38:25.857Z,4.55
2023-02-26T10:39:32.259Z,4.00
2023-02-26T10:40:40.655Z,4.22
2023-02-26T10:41:42.930Z,4.40
2023-02-26T10:42:51.877Z,4.25
2023-02-26T10:44:03.057Z,4.25
2023-02-26T10:45:24.003Z,3.60
2023-02-26T10:46:35.170Z,4.47
2023-02-26T10:47:46.515Z,4.13
2023-02-26T10:49:16.063Z,4.20
2023-02-26T10:50:22.540Z,3.90
2023-02-26T10:51:28.514Z,4.28
2023-02-26T10:52:35.099Z,4.97
2023-02-26T10:53:39.826Z,4.28
2023-02-26T10:55:04.682Z,3.85
2023-02-26T10:56:12.662Z,3.47
2023-02-26T10:57:20.957Z,3.53
2023-02-26T10:58:25.545Z,3.65
2023-02-26T10:59:28.185Z,4.43
2023-02-26T11:00:31.493Z,3.83
2023-02-26T11:01:33.625Z,3.55
2023-02-26T11:02:40.761Z,3.97
2023-02-26T11:03:45.188Z,4.05
2023-02-26T11:04:53.852Z,3.45
2023-02-26T11:06:08.545Z,3.58
2023-02-26T11:07:11.063Z,3.65
2023-02-26T11:08:19.486Z,3.72
2023-02-26T11:09:25.411Z,3.45
2023-02-26T11:10:37.970Z,3.90
2023-02-26T11:11:43.341Z,4.18
2023-02-26T11:12:47.225Z,4.55
2023-02-26T11:13:50.329Z,3.50
2023-02-26T11:14:54.162Z,3.45
2023-02-26T11:15:58.571Z,3.60
2023-02-26T11:17:05.196Z,3.67
2023-02-26T11:18:17.065Z,4.00
2023-02-26T11:19:27.456Z,3.75
2023-02-26T11:20:36.014Z,4.20
2023-02-26T11:21:42.611Z,3.75
2023-02-26T11:22:49.261Z,4.40
2023-02-26T11:23:59.005Z,4.18
2023-02-26T11:25:02.727Z,4.05
2023-02-26T11:26:08.851Z,4.00
2023-02-26T11:27:15.213Z,3.70
2023-02-26T11:28:23.320Z,3.50
2023-02-26T11:29:26.105Z,3.80
2023-02-26T11:30:32.491Z,4.00
2023-02-26T11:31:34.733Z,4.30
2023-02-26T11:32:39.713Z,4.32
2023-02-26T11:33:50.143Z,3.95
2023-02-26T11:34:54.729Z,4.70
2023-02-26T11:36:01.288Z,4.50
2023-02-26T11:37:05.124Z,4.22
2023-02-26T11:38:17.746Z,3.63
2023-02-26T11:39:24.098Z,4.32
2023-02-26T11:40:35.532Z,4.10
2023-02-26T11:41:40.450Z,4.70
2023-02-26T11:42:51.138Z,4.93
2023-02-26T11:44:03.097Z,4.95
2023-02-26T11:45:07.068Z,4.80
2023-02-26T11:46:12.101Z,5.28
2023-02-26T11:47:17.318Z,5.00
2023-02-26T11:48:24.736Z,4.60
2023-02-26T11:49:30.823Z,4.60
2023-02-26T11:50:38.376Z,5.22
2023-02-26T11:51:46.548Z,5.60
2023-02-26T11:52:57.960Z,6.15
2023-02-26T11:54:02.037Z,4.45
2023-02-26T11:55:17.238Z,4.45
2023-02-26T11:56:28.394Z,3.97
2023-02-26T11:57:32.886Z,3.90
2023-02-26T11:58:38.426Z,4.40
2023-02-26T11:59:41.036Z,4.70
2023-02-26T12:00:44.809Z,4.20
2023-02-26T12:01:48.901Z,4.55
2023-02-26T12:02:51.359Z,4.40
2023-02-26T12:03:54.828Z,4.47
2023-02-26T12:05:01.887Z,5.05
2023-02-26T12:06:05.612Z,4.40
2023-02-26T12:07:12.868Z,4.60
2023-02-26T12:08:28.767Z,4.20
2023-02-26T12:09:30.876Z,3.33
2023-02-26T12:10:43.436Z,3.80
2023-02-26T12:12:01.568Z,3.15
2023-02-26T12:13:14.036Z,3.28
2023-02-26T12:14:41.414Z,3.00
2023-02-26T12:15:53.880Z,3.20
2023-02-26T12:17:08.257Z,2.85
2023-02-26T12:18:30.247Z,2.65
2023-02-26T12:19:43.494Z,3.38
2023-02-26T12:20:54.182Z,2.67
2023-02-26T12:22:25.543Z,3.30
2023-02-26T12:23:59.217Z,5.65
2023-02-26T12:25:22.922Z,5.32
2023-02-26T12:26:29.864Z,4.25
2023-02-26T12:27:46.925Z,4.80
2023-02-26T12:29:02.916Z,4.05
2023-02-26T12:30:25.424Z,3.38
2023-02-26T12:32:06.182Z,3.63
2023-02-26T12:33:20.258Z,3.30
2023-02-26T12:34:55.438Z,4.00
2023-02-26T12:36:17.506Z,3.15
2023-02-26T12:37:51.420Z,3.35
2023-02-26T12:39:08.120Z,3.30
2023-02-26T12:40:39.928Z,3.28
2023-02-26T12:42:19.163Z,3.75
2023-02-26T12:43:35.779Z,3.45
2023-02-26T12:44:55.765Z,3.25
2023-02-26T12:46:16.844Z,3.05
2023-02-26T12:47:47.423Z,3.15
2023-02-26T12:49:07.043Z,3.20
2023-02-26T12:50:27.343Z,2.85
2023-02-26T12:51:49.300Z,2.10
2023-02-26T12:53:27.565Z,2.40
2023-02-26T12:54:56.636Z,2.42
2023-02-26T12:56:19.584Z,2.53
2023-02-26T12:58:05.749Z,2.63
2023-02-26T12:59:35.201Z,2.42
2023-02-26T13:00:52.147Z,2.45
2023-02-26T13:02:20.140Z,2.80
2023-02-26T13:03:55.097Z,2.88
2023-02-26T13:05:14.797Z,2.47
2023-02-26T13:06:48.699Z,2.50
2023-02-26T13:08:00.308Z,2.53
2023-02-26T13:09:07.044Z,2.83
2023-02-26T13:10:20.193Z,2.22
2023-02-26T13:11:37.720Z,2.40
2023-02-26T13:12:52.316Z,2.38
2023-02-26T13:14:13.705Z,2.35
2023-02-26T13:15:41.275Z,1.98
2023-02-26T13:16:51.609Z,2.70
2023-02-26T13:18:11.495Z,2.00
2023-02-26T13:19:27.407Z,2.38
2023-02-26T13:20:30.297Z,2.92
2023-02-26T13:21:38.149Z,2.20
2023-02-26T13:22:46.252Z,2.30
2023-02-26T13:24:11.150Z,2.17
2023-02-26T13:25:24.750Z,2.25
2023-02-26T13:26:30.816Z,1.90
2023-02-26T13:27:39.887Z,2.70
2023-02-26T13:29:01.755Z,2.20
2023-02-26T13:30:21.356Z,2.22
2023-02-26T13:31:29.488Z,2.40
2023-02-26T13:32:37.357Z,2.00
2023-02-26T13:33:41.072Z,2.60
2023-02-26T13:34:49.368Z,2.25
2023-02-26T13:35:56.561Z,2.35
2023-02-26T13:37:01.197Z,2.58
2023-02-26T13:38:14.531Z,2.45
2023-02-26T13:39:39.522Z,2.78
2023-02-26T13:40:58.032Z,2.20
2023-02-26T13:42:12.484Z,2.40
2023-02-26T13:43:35.434Z,2.45
2023-02-26T13:44:55.648Z,2.22
2023-02-26T13:46:08.949Z,1.92
2023-02-26T13:47:42.709Z,1.98
2023-02-26T13:48:56.590Z,3.00
2023-02-26T13:50:17.738Z,2.58
2023-02-26T13:51:34.902Z,2.80
2023-02-26T13:52:51.035Z,2.50
2023-02-26T13:54:05.480Z,2.55
2023-02-26T13:55:38.079Z,2.80
2023-02-26T13:56:49.936Z,3.10
2023-02-26T13:57:54.381Z,3.20
2023-02-26T13:59:04.727Z,3.20
2023-02-26T14:00:27.168Z,3.40
2023-02-26T14:01:36.940Z,3.22
2023-02-26T14:02:49.887Z,3.25
2023-02-26T14:03:55.444Z,3.28
2023-02-26T14:04:59.621Z,3.00
2023-02-26T14:06:22.843Z,3.20
2023-02-26T14:07:48.537Z,2.80
2023-02-26T14:08:55.995Z,2.78
2023-02-26T14:10:01.679Z,2.50
2023-02-26T14:11:38.044Z,2.85
2023-02-26T14:12:46.724Z,2.03
2023-02-26T14:14:10.892Z,1.60
2023-02-26T14:15:43.716Z,1.73
2023-02-26T14:16:51.380Z,1.90
2023-02-26T14:18:02.306Z,1.90
2023-02-26T14:19:27.288Z,1.95
2023-02-26T14:20:32.117Z,1.70
2023-02-26T14:21:48.398Z,2.00
2023-02-26T14:23:16.895Z,2.35
2023-02-26T14:24:23.738Z,2.50
2023-02-26T14:25:35.052Z,2.20
2023-02-26T14:26:38.017Z,1.90
2023-02-26T14:27:48.026Z,2.30
2023-02-26T14:29:06.841Z,2.28
2023-02-26T14:30:19.759Z,1.90
2023-02-26T14:31:26.563Z,1.90
2023-02-26T14:32:35.297Z,2.70
2023-02-26T14:33:43.195Z,2.20
2023-02-26T14:34:53.998Z,2.58
2023-02-26T14:35:58.478Z,2.28
2023-02-26T14:37:07.040Z,2.75
2023-02-26T14:38:27.665Z,2.38
2023-02-26T14:39:33.576Z,2.70
2023-02-26T14:40:41.868Z,2.60
2023-02-26T14:41:47.149Z,2.92
2023-02-26T14:42:57.365Z,3.03
2023-02-26T14:44:02.819Z,2.42
2023-02-26T14:45:18.762Z,2.95
2023-02-26T14:46:21.146Z,2.88
2023-02-26T14:47:25.760Z,3.25
2023-02-26T14:48:30.233Z,3.20
2023-02-26T14:49:38.477Z,3.40
2023-02-26T14:50:51.527Z,2.92
2023-02-26T14:52:14.963Z,2.50
2023-02-26T14:53:47.904Z,2.50
2023-02-26T14:55:08.261Z,3.03
2023-02-26T14:56:21.629Z,3.47
2023-02-26T14:57:30.892Z,2.80
2023-02-26T14:58:53.876Z,2.65
2023-02-26T15:00:13.507Z,2.47
2023-02-26T15:01:30.776Z,2.60
2023-02-26T15:02:48.063Z,2.67
2023-02-26T15:04:16.289Z,2.08
2023-02-26T15:05:36.511Z,2.50
2023-02-26T15:06:53.170Z,3.00
2023-02-26T15:08:25.527Z,2.50
2023-02-26T15:09:36.312Z,2.00
2023-02-26T15:10:51.943Z,2.53
2023-02-26T15:12:09.239Z,2.40
2023-02-26T15:13:27.533Z,2.35
2023-02-26T15:15:05.368Z,2.60
2023-02-26T15:16:22.916Z,2.60
2023-02-26T15:17:41.440Z,2.60
2023-02-26T15:19:00.985Z,2.40
2023-02-26T15:20:19.303Z,2.83
2023-02-26T15:21:29.459Z,2.20
2023-02-26T15:22:39.674Z,2.95
2023-02-26T15:23:55.881Z,3.05
2023-02-26T15:24:58.262Z,2.75
2023-02-26T15:26:01.784Z,3.35
2023-02-26T15:27:08.586Z,2.65
2023-02-26T15:28:15.937Z,3.58
2023-02-26T15:29:21.013Z,2.90
2023-02-26T15:30:26.484Z,3.00
2023-02-26T15:31:35.539Z,3.28
2023-02-26T15:32:40.985Z,2.80
2023-02-26T15:33:45.529Z,2.65
2023-02-26T15:34:58.368Z,3.28
2023-02-26T15:36:06.270Z,3.10
2023-02-26T15:37:20.554Z,2.88
2023-02-26T15:38:24.126Z,2.95
2023-02-26T15:39:27.974Z,2.53
2023-02-26T15:40:35.106Z,3.55
2023-02-26T15:41:40.500Z,3.20
2023-02-26T15:42:45.325Z,3.20
2023-02-26T15:43:58.680Z,3.20
2023-02-26T15:45:02.723Z,3.20
2023-02-26T15:46:11.644Z,2.83
2023-02-26T15:47:17.152Z,3.72
2023-02-26T15:48:23.080Z,3.08
2023-02-26T15:49:29.972Z,2.90
2023-02-26T15:50:39.321Z,2.67
2023-02-26T15:51:45.239Z,3.80
2023-02-26T15:52:53.486Z,3.10
2023-02-26T15:54:03.120Z,3.10
2023-02-26T15:55:17.921Z,3.60
2023-02-26T15:56:25.254Z,3.65
2023-02-26T15:57:30.668Z,2.85
2023-02-26T15:58:38.348Z,3.03
2023-02-26T15:59:46.460Z,3.20
2023-02-26T16:00:54.596Z,3.50
2023-02-26T16:01:59.568Z,3.10
2023-02-26T16:03:04.914Z,3.20
2023-02-26T16:04:15.879Z,3.30
2023-02-26T16:05:19.396Z,3.50
2023-02-26T16:06:27.741Z,3.38
2023-02-26T16:07:31.383Z,2.90
2023-02-26T16:08:34.169Z,3.88
2023-02-26T16:09:40.181Z,3.65
2023-02-26T16:10:44.955Z,3.70
2023-02-26T16:11:49.801Z,3.17
2023-02-26T16:12:53.791Z,3.75
2023-02-26T16:13:59.297Z,3.70
2023-02-26T16:15:08.342Z,4.00
2023-02-26T16:16:20.249Z,3.40
2023-02-26T16:17:28.034Z,4.07
2023-02-26T16:18:36.140Z,3.95
2023-02-26T16:19:42.797Z,3.10
2023-02-26T16:20:48.849Z,3.50
2023-02-26T16:21:56.740Z,4.32
2023-02-26T16:23:03.314Z,3.80
2023-02-26T16:24:19.163Z,3.65
2023-02-26T16:25:26.611Z,3.45
2023-02-26T16:26:35.103Z,4.15
2023-02-26T16:27:37.497Z,4.00
2023-02-26T16:28:46.104Z,4.50
2023-02-26T16:29:52.774Z,3.00
2023-02-26T16:31:00.790Z,2.53
2023-02-26T16:32:08.993Z,3.03
2023-02-26T16:33:16.402Z,2.75
2023-02-26T16:34:29.219Z,2.83
2023-02-26T16:35:38.584Z,2.55
2023-02-26T16:36:46.419Z,2.88
2023-02-26T16:37:52.533Z,2.70
2023-02-26T16:39:02.559Z,2.33
2023-02-26T16:40:18.910Z,3.13
2023-02-26T16:41:25.927Z,2.90
2023-02-26T16:42:46.077Z,3.10
2023-02-26T16:43:57.017Z,2.55
2023-02-26T16:45:16.931Z,2.50
2023-02-26T16:46:27.307Z,3.22
2023-02-26T16:47:31.565Z,3.20
2023-02-26T16:48:41.298Z,2.42
2023-02-26T16:49:49.308Z,2.50
2023-02-26T16:50:57.215Z,2.80
2023-02-26T16:52:03.882Z,1.95
2023-02-26T16:53:10.775Z,2.60
2023-02-26T16:54:22.575Z,1.95
2023-02-26T16:55:30.842Z,2.13
2023-02-26T16:56:39.865Z,2.22
2023-02-26T16:57:44.906Z,2.60
2023-02-26T16:58:53.641Z,2.60
2023-02-26T17:00:05.098Z,2.50
2023-02-26T17:01:17.412Z,2.58
2023-02-26T17:02:23.389Z,2.28
2023-02-26T17:03:30.314Z,2.25
2023-02-26T17:04:37.188Z,2.20
2023-02-26T17:05:55.364Z,2.00
2023-02-26T17:07:00.809Z,2.40
2023-02-26T17:08:09.892Z,2.55
2023-02-26T17:09:31.943Z,2.70
2023-02-26T17:10:39.618Z,2.80
2023-02-26T17:11:44.603Z,2.50
2023-02-26T17:12:50.418Z,2.30
2023-02-26T17:14:14.163Z,2.85
2023-02-26T17:15:21.297Z,2.40
2023-02-26T17:16:26.545Z,2.70
2023-02-26T17:17:29.966Z,2.90
2023-02-26T17:18:33.981Z,2.67
2023-02-26T17:19:40.168Z,2.58
2023-02-26T17:20:45.436Z,3.00
2023-02-26T17:21:50.441Z,2.70
2023-02-26T17:22:54.148Z,2.95
2023-02-26T17:24:06.355Z,2.90
2023-02-26T17:25:21.020Z,3.00
2023-02-26T17:26:26.301Z,2.65
2023-02-26T17:27:31.957Z,2.65
2023-02-26T17:28:40.469Z,2.58
2023-02-26T17:29:50.973Z,2.38
2023-02-26T17:30:55.969Z,2.60
2023-02-26T17:31:58.418Z,2.60
2023-02-26T17:33:03.643Z,2.50
2023-02-26T17:34:11.020Z,2.50
2023-02-26T17:35:16.097Z,3.17
2023-02-26T17:36:21.378Z,3.20
2023-02-26T17:37:26.262Z,3.35
2023-02-26T17:38:30.017Z,3.63
2023-02-26T17:39:34.590Z,3.10
2023-02-26T17:40:38.470Z,3.72
2023-02-26T17:41:49.226Z,3.05
2023-02-26T17:42:52.631Z,2.92
2023-02-26T17:43:57.925Z,3.20
2023-02-26T17:45:01.292Z,2.20
2023-02-26T17:46:06.966Z,2.72
2023-02-26T17:47:19.202Z,2.85
2023-02-26T17:48:22.662Z,2.63
2023-02-26T17:49:26.227Z,2.60
2023-02-26T17:50:36.647Z,2.53
2023-02-26T17:51:40.494Z,2.70
2023-02-26T17:52:45.726Z,2.80
2023-02-26T17:53:49.382Z,3.05
2023-02-26T17:54:55.041Z,2.55
2023-02-26T17:55:58.474Z,2.33
2023-02-26T17:57:00.991Z,2.20
2023-02-26T17:58:04.345Z,2.13
2023-02-26T17:59:07.145Z,2.85
2023-02-26T18:00:16.089Z,2.20
2023-02-26T18:01:19.451Z,1.67
2023-02-26T18:02:25.604Z,2.10
2023-02-26T18:03:31.671Z,1.83
2023-02-26T18:04:35.510Z,1.70
2023-02-26T18:05:41.554Z,2.00
2023-02-26T18:06:45.837Z,1.83
2023-02-26T18:07:53.093Z,1.90
2023-02-26T18:08:55.477Z,2.40
2023-02-26T18:09:58.718Z,1.92
2023-02-26T18:11:05.452Z,2.45
2023-02-26T18:12:13.063Z,2.30
2023-02-26T18:13:19.882Z,2.38
2023-02-26T18:14:23.405Z,2.20
2023-02-26T18:15:31.137Z,1.95
2023-02-26T18:16:40.627Z,2.00
2023-02-26T18:17:45.649Z,2.15
2023-02-26T18:18:49.389Z,2.28
2023-02-26T18:19:56.702Z,2.35
2023-02-26T18:21:05.818Z,2.15
2023-02-26T18:22:18.065Z,2.20
2023-02-26T18:23:22.532Z,2.50
2023-02-26T18:24:25.131Z,2.80
2023-02-26T18:25:31.783Z,2.47
2023-02-26T18:26:38.604Z,2.80
2023-02-26T18:27:42.445Z,3.08
2023-02-26T18:28:51.631Z,2.60
2023-02-26T18:29:59.325Z,2.50
2023-02-26T18:31:11.545Z,2.60
2023-02-26T18:32:15.833Z,2.42
2023-02-26T18:33:22.616Z,2.90
2023-02-26T18:34:28.474Z,2.47
2023-02-26T18:35:55.137Z,3.22
2023-02-26T18:37:04.087Z,3.03
2023-02-26T18:38:20.129Z,2.13
2023-02-26T18:39:29.946Z,2.78
2023-02-26T18:40:36.190Z,3.72
2023-02-26T18:41:40.217Z,2.53
2023-02-26T18:42:50.251Z,3.00
2023-02-26T18:43:53.095Z,2.60
2023-02-26T18:45:10.382Z,2.90
2023-02-26T18:46:16.718Z,2.60
2023-02-26T18:47:23.839Z,3.03
2023-02-26T18:48:29.149Z,3.08
2023-02-26T18:49:40.129Z,2.42
2023-02-26T18:50:49.728Z,2.90
2023-02-26T18:51:57.487Z,2.90
2023-02-26T18:53:05.304Z,4.00
2023-02-26T18:54:08.642Z,5.40
2023-02-26T18:55:14.687Z,4.25
2023-02-26T18:56:18.097Z,3.70
2023-02-26T18:57:20.525Z,2.95
2023-02-26T18:58:26.879Z,2.90
2023-02-26T18:59:33.099Z,3.17
2023-02-26T19:00:39.517Z,3.08
2023-02-26T19:01:46.991Z,3.28
2023-02-26T19:02:52.817Z,3.17
2023-02-26T19:03:55.164Z,2.90
2023-02-26T19:04:58.699Z,3.08
2023-02-26T19:06:02.692Z,3.90
2023-02-26T19:07:09.012Z,5.55
2023-02-26T19:08:16.610Z,3.85
2023-02-26T19:09:19.126Z,4.18
2023-02-26T19:10:25.386Z,3.50
2023-02-26T19:11:29.128Z,5.07
2023-02-26T19:12:46.029Z,4.50
2023-02-26T19:13:52.545Z,4.90
2023-02-26T19:14:56.486Z,4.47
2023-02-26T19:16:00.347Z,4.70
2023-02-26T19:17:10.006Z,4.93
2023-02-26T19:18:21.041Z,5.30
2023-02-26T19:19:24.612Z,5.72
2023-02-26T19:20:30.375Z,5.03
2023-02-26T19:21:34.446Z,5.20
2023-02-26T19:22:38.032Z,4.70
2023-02-26T19:23:43.074Z,5.20
2023-02-26T19:24:47.930Z,4.38
2023-02-26T19:25:53.223Z,4.28
2023-02-26T19:26:59.258Z,4.53
2023-02-26T19:28:02.064Z,4.20
2023-02-26T19:29:07.978Z,5.15
2023-02-26T19:30:15.249Z,4.30
2023-02-26T19:31:18.657Z,4.13
2023-02-26T19:32:28.607Z,3.95
2023-02-26T19:33:36.342Z,4.75
2023-02-26T19:34:40.546Z,5.05
2023-02-26T19:35:44.393Z,4.68
2023-02-26T19:36:48.349Z,4.65
2023-02-26T19:37:51.711Z,4.20
2023-02-26T19:38:57.309Z,3.90
2023-02-26T19:40:06.008Z,3.95
2023-02-26T19:41:08.536Z,3.95
2023-02-26T19:42:26.244Z,3.80
2023-02-26T19:44:16.709Z,3.97
2023-02-26T19:45:01.998Z,4.20
2023-02-26T19:46:39.850Z,4.15
2023-02-26T19:47:58.102Z,4.10
2023-02-26T19:49:56.051Z,3.83
2023-02-26T19:50:58.737Z,3.90
2023-02-26T19:52:08.271Z,4.25
2023-02-26T19:53:11.807Z,4.93
2023-02-26T19:54:19.341Z,4.03
2023-02-26T19:55:36.052Z,4.45
2023-02-26T19:56:50.735Z,4.65
2023-02-26T19:58:08.028Z,5.05
2023-02-26T19:59:12.509Z,4.07
2023-02-26T20:00:21.680Z,4.32
2023-02-26T20:01:24.810Z,4.50
2023-02-26T20:02:28.232Z,4.55
2023-02-26T20:03:30.956Z,4.78
2023-02-26T20:04:37.179Z,4.22
2023-02-26T20:05:41.970Z,4.30
2023-02-26T20:06:48.554Z,4.53
2023-02-26T20:07:56.744Z,4.70
2023-02-26T20:09:02.984Z,4.07
2023-02-26T20:10:12.173Z,4.32
2023-02-26T20:11:18.645Z,4.53
2023-02-26T20:12:30.515Z,4.50
2023-02-26T20:13:45.764Z,3.83
2023-02-26T20:14:50.398Z,4.10
2023-02-26T20:15:56.868Z,4.78
2023-02-26T20:17:08.465Z,5.40
2023-02-26T20:18:16.335Z,5.20
2023-02-26T20:19:37.162Z,4.70
2023-02-26T20:20:57.281Z,4.65
2023-02-26T20:22:13.742Z,5.03
2023-02-26T20:23:18.746Z,4.75
2023-02-26T20:24:28.495Z,4.70
2023-02-26T20:25:36.525Z,4.55
2023-02-26T20:26:44.934Z,4.15
2023-02-26T20:27:48.546Z,4.85
2023-02-26T20:28:52.460Z,4.95
2023-02-26T20:29:58.037Z,4.50
2023-02-26T20:31:00.788Z,4.85
2023-02-26T20:32:04.783Z,4.50
2023-02-26T20:33:07.402Z,5.60
2023-02-26T20:34:13.977Z,4.82
2023-02-26T20:35:19.532Z,5.57
2023-02-26T20:36:26.392Z,4.88
2023-02-26T20:37:36.170Z,4.15
2023-02-26T20:38:40.942Z,5.20
2023-02-26T20:39:51.484Z,4.30
2023-02-26T20:41:01.847Z,4.25
2023-02-26T20:42:07.421Z,4.32
2023-02-26T20:43:11.573Z,5.13
2023-02-26T20:44:17.315Z,4.75
2023-02-26T20:45:25.196Z,4.45
2023-02-26T20:46:30.864Z,4.60
2023-02-26T20:47:38.919Z,4.57
2023-02-26T20:48:44.236Z,4.70
2023-02-26T20:49:53.445Z,4.45
2023-02-26T20:50:59.490Z,4.50
2023-02-26T20:52:04.513Z,4.28
2023-02-26T20:53:08.044Z,4.63
2023-02-26T20:54:12.930Z,5.35
2023-02-26T20:55:25.743Z,4.10
2023-02-26T20:56:36.199Z,4.65
2023-02-26T20:57:44.176Z,4.10
2023-02-26T20:58:52.402Z,4.38
2023-02-26T21:00:00.986Z,4.80
2023-02-26T21:01:06.717Z,4.93
2023-02-26T21:02:15.752Z,4.95
2023-02-26T21:03:18.506Z,5.10
2023-02-26T21:04:25.670Z,4.18
2023-02-26T21:05:29.752Z,4.45
2023-02-26T21:06:40.706Z,4.75
2023-02-26T21:07:46.104Z,4.28
2023-02-26T21:08:51.261Z,5.13
2023-02-26T21:10:02.221Z,5.40
2023-02-26T21:11:16.950Z,4.80
2023-02-26T21:12:20.918Z,4.90
2023-02-26T21:13:27.667Z,4.70
2023-02-26T21:14:34.570Z,5.32
2023-02-26T21:15:40.531Z,5.10
2023-02-26T21:17:04.796Z,4.60
2023-02-26T21:18:10.758Z,4.60
2023-02-26T21:19:17.653Z,5.20
2023-02-26T21:20:26.615Z,5.18
2023-02-26T21:21:31.371Z,4.93
2023-02-26T21:22:39.872Z,5.10
2023-02-26T21:23:46.662Z,5.20
2023-02-26T21:24:49.928Z,5.18
2023-02-26T21:25:56.337Z,5.10
2023-02-26T21:26:58.591Z,5.35
2023-02-26T21:28:05.317Z,4.90
2023-02-26T21:29:11.627Z,5.35
2023-02-26T21:30:19.825Z,5.78
2023-02-26T21:31:26.627Z,5.45
2023-02-26T21:32:28.941Z,5.15
2023-02-26T21:33:32.367Z,5.40
2023-02-26T21:41:42.342Z,4.95
2023-02-26T22:40:23.497Z,4.45
2023-02-26T23:22:11.208Z,5.88
2023-02-26T23:28:57.144Z,5.57
2023-02-26T23:30:03.116Z,4.65